createdAt,value
2018-11-21T00:02:27.046Z,4.93
2018-11-21T00:04:52.555Z,4.23
2018-11-21T00:07:19.939Z,4.00
2018-11-21T00:09:47.226Z,4.57
2018-11-21T00:12:14.631Z,3.93
2018-11-21T00:14:41.920Z,3.57
2018-11-21T00:17:09.335Z,4.23
2018-11-21T00:19:36.832Z,4.77
2018-11-21T00:22:04.422Z,4.93
2018-11-21T00:24:32.026Z,4.80
2018-11-21T00:26:59.509Z,3.43
2018-11-21T00:29:29.371Z,3.83
2018-11-21T00:31:57.220Z,4.13
2018-11-21T00:34:24.705Z,4.57
2018-11-21T00:36:52.180Z,10.47
2018-11-21T00:39:19.584Z,11.80
2018-11-21T00:41:46.905Z,8.67
2018-11-21T00:44:14.307Z,6.80
2018-11-21T00:46:41.831Z,4.50
2018-11-21T00:49:09.134Z,3.83
2018-11-21T00:51:36.513Z,3.50
2018-11-21T00:54:03.983Z,4.10
2018-11-21T00:56:35.346Z,3.93
2018-11-21T00:59:02.761Z,3.87
2018-11-21T01:01:30.139Z,3.63
2018-11-21T01:03:57.591Z,3.60
2018-11-21T01:06:27.530Z,3.70
2018-11-21T01:08:55.028Z,2.97
2018-11-21T01:11:22.629Z,3.40
2018-11-21T01:13:49.941Z,3.60
2018-11-21T01:16:17.288Z,4.73
2018-11-21T01:18:46.466Z,6.77
2018-11-21T01:21:13.851Z,4.70
2018-11-21T01:23:41.270Z,7.93
2018-11-21T01:26:08.593Z,8.70
2018-11-21T01:28:36.012Z,7.80
2018-11-21T01:31:03.607Z,7.53
2018-11-21T01:33:30.995Z,2.87
2018-11-21T01:35:58.379Z,3.33
2018-11-21T01:38:25.813Z,3.33
2018-11-21T01:40:56.029Z,2.50
2018-11-21T01:43:23.379Z,2.40
2018-11-21T01:45:50.739Z,2.30
2018-11-21T01:48:29.673Z,3.20
2018-11-21T01:50:57.457Z,4.13
2018-11-21T01:53:24.756Z,4.70
2018-11-21T01:55:52.191Z,5.50
2018-11-21T01:58:19.636Z,5.00
2018-11-21T02:00:47.110Z,3.93
2018-11-21T02:03:16.510Z,4.20
2018-11-21T02:05:44.243Z,3.40
2018-11-21T02:08:11.750Z,4.77
2018-11-21T02:10:39.501Z,5.00
2018-11-21T02:13:06.986Z,4.30
2018-11-21T02:15:34.373Z,4.27
2018-11-21T02:18:02.073Z,4.10
2018-11-21T02:20:29.621Z,3.77
2018-11-21T02:22:57.606Z,3.67
2018-11-21T02:25:27.388Z,3.03
2018-11-21T02:27:55.054Z,2.77
2018-11-21T02:30:22.645Z,2.60
2018-11-21T02:32:50.060Z,3.70
2018-11-21T02:35:17.296Z,2.87
2018-11-21T02:37:44.730Z,3.83
2018-11-21T02:40:12.212Z,3.40
2018-11-21T02:42:39.499Z,3.30
2018-11-21T02:45:07.026Z,4.10
2018-11-21T02:47:34.528Z,4.90
2018-11-21T02:50:02.240Z,3.27
2018-11-21T02:52:29.939Z,2.93
2018-11-21T02:54:57.637Z,3.47
2018-11-21T02:57:28.674Z,3.87
2018-11-21T03:00:07.459Z,4.87
2018-11-21T03:02:37.749Z,7.53
2018-11-21T03:05:08.436Z,4.23
2018-11-21T03:07:38.330Z,4.37
2018-11-21T03:10:06.288Z,4.27
2018-11-21T03:12:34.082Z,4.87
2018-11-21T03:15:01.861Z,4.90
2018-11-21T03:17:29.174Z,4.30
2018-11-21T03:19:56.728Z,4.30
2018-11-21T03:22:24.194Z,3.63
2018-11-21T03:24:51.591Z,3.17
2018-11-21T03:27:18.901Z,3.13
2018-11-21T03:29:48.196Z,3.10
2018-11-21T03:32:15.730Z,3.27
2018-11-21T03:34:43.152Z,3.57
2018-11-21T03:37:10.847Z,4.50
2018-11-21T03:39:38.512Z,5.40
2018-11-21T03:42:06.173Z,8.90
2018-11-21T03:44:35.941Z,9.67
2018-11-21T03:47:03.675Z,16.20
2018-11-21T03:49:31.206Z,19.97
2018-11-21T03:51:58.710Z,20.30
2018-11-21T03:54:26.410Z,15.60
2018-11-21T03:56:53.707Z,15.37
2018-11-21T03:59:21.148Z,10.77
2018-11-21T04:01:48.589Z,14.73
2018-11-21T04:04:16.095Z,20.33
2018-11-21T04:06:43.947Z,24.33
2018-11-21T04:09:12.434Z,32.57
2018-11-21T04:11:40.120Z,16.47
2018-11-21T04:14:09.129Z,6.77
2018-11-21T04:16:36.610Z,6.67
2018-11-21T04:19:04.669Z,6.93
2018-11-21T04:21:32.329Z,7.13
2018-11-21T04:23:59.862Z,3.97
2018-11-21T04:26:27.329Z,3.23
2018-11-21T04:28:54.905Z,4.80
2018-11-21T04:31:24.529Z,5.93
2018-11-21T04:33:54.338Z,9.50
2018-11-21T04:36:21.949Z,11.97
2018-11-21T04:38:49.441Z,10.13
2018-11-21T04:41:17.036Z,6.03
2018-11-21T04:43:44.586Z,5.37
2018-11-21T04:46:11.810Z,7.70
2018-11-21T04:48:39.159Z,7.07
2018-11-21T04:51:06.511Z,6.20
2018-11-21T04:53:33.824Z,11.77
2018-11-21T04:56:01.335Z,9.50
2018-11-21T04:58:28.658Z,8.93
2018-11-21T05:00:56.081Z,7.23
2018-11-21T05:03:23.437Z,7.83
2018-11-21T05:05:50.855Z,10.63
2018-11-21T05:08:18.296Z,8.67
2018-11-21T05:10:47.318Z,6.10
2018-11-21T05:13:14.822Z,4.83
2018-11-21T05:15:42.331Z,4.57
2018-11-21T05:18:09.973Z,20.10
2018-11-21T05:20:38.126Z,9.93
2018-11-21T05:23:05.631Z,4.40
2018-11-21T05:25:32.967Z,3.83
2018-11-21T05:28:00.422Z,2.63
2018-11-21T05:30:27.923Z,3.97
2018-11-21T05:32:55.328Z,3.90
2018-11-21T05:35:22.720Z,3.73
2018-11-21T05:37:50.082Z,5.73
2018-11-21T05:40:17.573Z,4.33
2018-11-21T05:42:45.178Z,4.47
2018-11-21T05:45:12.578Z,3.97
2018-11-21T05:47:40.301Z,4.23
2018-11-21T05:50:09.623Z,4.03
2018-11-21T05:52:37.494Z,4.50
2018-11-21T05:55:05.272Z,3.30
2018-11-21T05:57:32.887Z,3.50
2018-11-21T06:00:02.475Z,3.83
2018-11-21T06:02:32.911Z,3.30
2018-11-21T06:05:00.333Z,3.73
2018-11-21T06:07:30.444Z,3.80
2018-11-21T06:09:57.891Z,4.50
2018-11-21T06:12:25.236Z,4.30
2018-11-21T06:14:52.611Z,4.70
2018-11-21T06:17:22.630Z,4.50
2018-11-21T06:19:49.962Z,5.17
2018-11-21T06:22:17.674Z,3.90
2018-11-21T06:24:45.089Z,4.77
2018-11-21T06:27:12.601Z,4.43
2018-11-21T06:29:40.187Z,4.27
2018-11-21T06:32:10.638Z,4.23
2018-11-21T06:34:45.637Z,4.77
2018-11-21T06:37:13.063Z,4.33
2018-11-21T06:39:40.553Z,4.27
2018-11-21T06:42:10.704Z,6.40
2018-11-21T06:44:38.180Z,8.53
2018-11-21T06:47:08.499Z,7.60
2018-11-21T06:49:35.745Z,7.87
2018-11-21T06:52:05.664Z,5.67
2018-11-21T06:54:33.433Z,7.10
2018-11-21T06:57:03.864Z,10.17
2018-11-21T06:59:31.345Z,13.23
2018-11-21T07:01:58.732Z,12.53
2018-11-21T07:04:26.176Z,6.13
2018-11-21T07:06:53.797Z,7.30
2018-11-21T07:09:21.229Z,6.37
2018-11-21T07:11:48.937Z,8.07
2018-11-21T07:14:16.438Z,6.57
2018-11-21T07:16:53.214Z,5.70
2018-11-21T07:19:20.613Z,4.70
2018-11-21T07:21:48.162Z,6.67
2018-11-21T07:24:18.651Z,7.67
2018-11-21T07:26:46.260Z,16.63
2018-11-21T07:29:14.049Z,12.60
2018-11-21T07:31:41.575Z,9.00
2018-11-21T07:34:11.426Z,9.17
2018-11-21T07:36:39.069Z,7.73
2018-11-21T07:39:11.365Z,6.60
2018-11-21T07:41:41.611Z,8.97
2018-11-21T07:44:09.094Z,11.27
2018-11-21T07:46:36.705Z,6.97
2018-11-21T07:49:04.133Z,6.63
2018-11-21T07:51:34.656Z,9.93
2018-11-21T07:54:01.430Z,9.47
2018-11-21T07:57:14.047Z,8.87
2018-11-21T08:00:19.080Z,9.53
2018-11-21T08:02:46.626Z,7.90
2018-11-21T08:05:19.028Z,8.00
2018-11-21T08:07:53.971Z,7.37
2018-11-21T08:10:43.472Z,8.10
2018-11-21T08:13:43.776Z,10.27
2018-11-21T08:16:32.059Z,10.97
2018-11-21T08:19:18.445Z,11.33
2018-11-21T08:22:06.787Z,13.37
2018-11-21T08:24:51.624Z,8.37
2018-11-21T08:27:38.841Z,12.30
2018-11-21T08:30:08.438Z,11.93
2018-11-21T08:32:40.207Z,11.97
2018-11-21T08:35:07.771Z,13.90
2018-11-21T08:37:35.306Z,12.37
2018-11-21T08:40:05.102Z,13.17
2018-11-21T08:42:32.999Z,13.90
2018-11-21T08:45:01.881Z,13.23
2018-11-21T08:47:34.177Z,12.53
2018-11-21T08:50:02.586Z,13.23
2018-11-21T08:56:42.444Z,13.73
2018-11-21T08:59:14.378Z,13.00
2018-11-21T09:01:44.944Z,16.40
2018-11-21T09:04:24.097Z,14.73
2018-11-21T09:07:11.980Z,32.57
2018-11-21T09:12:59.425Z,15.00
2018-11-21T09:15:30.395Z,13.23
2018-11-21T09:18:41.817Z,12.93
2018-11-21T09:21:38.220Z,12.60
2018-11-21T09:25:51.383Z,15.97
2018-11-21T09:28:47.003Z,16.00
2018-11-21T09:32:07.815Z,15.03
2018-11-21T09:45:11.433Z,12.47
2018-11-21T09:55:06.759Z,29.50
2018-11-21T09:57:48.685Z,26.63
2018-11-21T10:01:05.048Z,23.53
2018-11-21T10:04:37.519Z,25.80
2018-11-21T10:07:50.689Z,34.40
2018-11-21T10:11:01.663Z,33.43
2018-11-21T10:13:37.479Z,38.00
2018-11-21T10:16:39.853Z,25.97
2018-11-21T10:30:21.826Z,18.27
2018-11-21T10:32:54.433Z,18.13
2018-11-21T10:35:43.910Z,23.47
2018-11-21T10:41:53.431Z,32.23
2018-11-21T10:48:25.943Z,17.70
2018-11-21T10:53:18.303Z,21.50
2018-11-21T10:53:45.261Z,17.10
2018-11-21T11:00:51.431Z,19.00
2018-11-21T11:08:08.408Z,19.97
2018-11-21T11:11:06.508Z,19.80
2018-11-21T11:32:16.232Z,15.13
2018-11-21T11:35:15.977Z,13.30
2018-11-21T11:38:28.431Z,13.70
2018-11-21T11:41:46.481Z,21.23
2018-11-21T11:48:46.196Z,33.37
2018-11-21T11:59:11.277Z,20.57
2018-11-21T12:18:23.386Z,18.70
2018-11-21T12:29:30.516Z,35.23
2018-11-21T12:32:18.245Z,54.13
2018-11-21T12:35:35.627Z,62.67
2018-11-21T12:42:49.380Z,26.93
2018-11-21T12:46:47.746Z,21.80
2018-11-21T12:53:43.191Z,21.53
2018-11-21T13:03:44.320Z,10.53
2018-11-21T13:06:55.383Z,13.10
2018-11-21T13:10:01.578Z,19.20
2018-11-21T13:28:18.312Z,37.93
2018-11-21T13:31:20.610Z,42.13
2018-11-21T13:38:37.778Z,50.77
2018-11-21T13:41:31.839Z,26.23
2018-11-21T13:44:41.679Z,26.07
2018-11-21T13:48:22.139Z,31.70
2018-11-21T13:51:33.832Z,29.37
2018-11-21T13:54:49.355Z,31.40
2018-11-21T13:57:42.370Z,36.97
2018-11-21T14:00:59.159Z,24.30
2018-11-21T14:07:59.466Z,26.53
2018-11-21T14:10:52.266Z,22.27
2018-11-21T14:13:20.969Z,22.97
2018-11-21T14:16:06.047Z,19.13
2018-11-21T14:19:00.252Z,20.60
2018-11-21T14:21:36.706Z,20.40
2018-11-21T14:24:16.555Z,20.30
2018-11-21T14:27:29.712Z,25.87
2018-11-21T14:33:31.275Z,21.73
2018-11-21T14:36:06.562Z,24.53
2018-11-21T14:42:45.560Z,17.13
2018-11-21T14:45:36.033Z,16.67
2018-11-21T14:48:08.700Z,12.07
2018-11-21T14:50:53.374Z,10.27
2018-11-21T14:54:28.743Z,11.83
2018-11-21T15:27:18.469Z,16.87
2018-11-21T15:29:50.643Z,17.03
2018-11-21T15:43:25.429Z,22.57
2018-11-21T15:46:27.589Z,17.23
2018-11-21T15:48:58.753Z,13.77
2018-11-21T15:52:37.677Z,15.03
2018-11-21T15:55:04.044Z,13.93
2018-11-21T15:57:31.409Z,12.10
2018-11-21T15:59:58.843Z,12.20
2018-11-21T16:02:26.448Z,11.77
2018-11-21T16:04:54.034Z,11.37
2018-11-21T16:07:21.486Z,9.83
2018-11-21T16:09:50.878Z,8.03
2018-11-21T16:12:18.341Z,6.97
2018-11-21T16:14:45.694Z,7.27
2018-11-21T16:17:14.612Z,7.23
2018-11-21T16:20:09.047Z,6.07
2018-11-21T16:22:36.517Z,5.13
2018-11-21T16:25:04.139Z,5.27
2018-11-21T16:27:37.178Z,5.40
2018-11-21T16:30:09.938Z,4.70
2018-11-21T16:33:04.459Z,5.57
2018-11-21T16:35:31.821Z,5.80
2018-11-21T16:38:06.007Z,8.03
2018-11-21T16:40:34.163Z,7.93
2018-11-21T16:43:01.714Z,7.37
2018-11-21T16:45:30.914Z,8.03
2018-11-21T16:47:58.332Z,7.93
2018-11-21T16:50:28.895Z,7.80
2018-11-21T16:52:56.253Z,8.43
2018-11-21T16:55:25.069Z,10.27
2018-11-21T16:58:02.107Z,7.47
2018-11-21T17:00:30.494Z,5.77
2018-11-21T17:02:57.818Z,5.20
2018-11-21T17:05:26.219Z,4.53
2018-11-21T17:07:55.985Z,6.17
2018-11-21T17:10:25.052Z,7.40
2018-11-21T17:12:52.361Z,11.70
2018-11-21T17:15:21.156Z,10.43
2018-11-21T17:17:48.501Z,11.27
2018-11-21T17:20:20.719Z,10.33
2018-11-21T17:22:49.455Z,10.77
2018-11-21T17:25:19.373Z,8.80
2018-11-21T17:27:45.669Z,8.30
2018-11-21T17:30:14.488Z,8.13
2018-11-21T17:32:43.299Z,8.27
2018-11-21T17:35:12.724Z,7.47
2018-11-21T17:37:40.516Z,7.83
2018-11-21T17:40:16.615Z,6.40
2018-11-21T17:42:44.084Z,6.80
2018-11-21T17:45:12.321Z,6.10
2018-11-21T17:47:40.068Z,5.67
2018-11-21T17:50:09.486Z,4.83
2018-11-21T17:52:36.753Z,4.40
2018-11-21T17:55:05.386Z,6.10
2018-11-21T17:57:32.816Z,4.80
2018-11-21T18:00:00.199Z,4.53
2018-11-21T18:02:27.647Z,4.53
2018-11-21T18:04:54.946Z,5.23
2018-11-21T18:07:22.511Z,5.43
2018-11-21T18:09:49.794Z,5.20
2018-11-21T18:12:17.180Z,5.07
2018-11-21T18:14:44.559Z,5.40
2018-11-21T18:17:11.971Z,5.83
2018-11-21T18:19:39.296Z,6.37
2018-11-21T18:22:09.310Z,6.60
2018-11-21T18:24:36.628Z,6.07
2018-11-21T18:27:07.229Z,5.20
2018-11-21T18:29:34.455Z,5.57
2018-11-21T18:32:02.017Z,5.67
2018-11-21T18:34:29.385Z,5.77
2018-11-21T18:36:56.726Z,7.10
2018-11-21T18:39:24.137Z,5.73
2018-11-21T18:41:52.712Z,6.00
2018-11-21T18:44:19.032Z,7.07
2018-11-21T18:46:46.445Z,6.93
2018-11-21T18:49:13.743Z,6.20
2018-11-21T18:51:41.250Z,5.93
2018-11-21T18:54:08.628Z,5.30
2018-11-21T18:56:48.022Z,5.30
2018-11-21T18:59:47.230Z,5.67
2018-11-21T19:02:14.751Z,7.27
2018-11-21T19:04:42.216Z,6.23
2018-11-21T19:07:09.657Z,6.90
2018-11-21T19:09:37.255Z,6.17
2018-11-21T19:12:04.922Z,5.50
2018-11-21T19:14:32.476Z,6.13
2018-11-21T19:16:59.854Z,7.17
2018-11-21T19:19:27.551Z,5.80
2018-11-21T19:21:55.191Z,5.73
2018-11-21T19:24:22.569Z,5.70
2018-11-21T19:26:50.169Z,6.50
2018-11-21T19:29:17.814Z,6.83
2018-11-21T19:31:45.465Z,6.23
2018-11-21T19:34:14.968Z,7.67
2018-11-21T19:36:40.415Z,7.03
2018-11-21T19:39:10.982Z,7.30
2018-11-21T19:41:38.460Z,6.93
2018-11-21T19:44:06.166Z,7.23
2018-11-21T19:46:33.690Z,10.10
2018-11-21T19:49:04.004Z,8.60
2018-11-21T19:51:31.490Z,9.47
2018-11-21T19:53:59.699Z,10.13
2018-11-21T19:56:27.020Z,9.03
2018-11-21T19:58:54.444Z,9.17
2018-11-21T20:01:21.843Z,9.00
2018-11-21T20:03:49.205Z,9.73
2018-11-21T20:06:19.115Z,7.63
2018-11-21T20:08:46.543Z,8.07
2018-11-21T20:11:14.169Z,6.23
2018-11-21T20:13:41.575Z,7.13
2018-11-21T20:16:08.952Z,7.70
2018-11-21T20:18:36.510Z,7.33
2018-11-21T20:21:06.304Z,7.43
2018-11-21T20:23:34.003Z,8.70
2018-11-21T20:26:01.504Z,9.07
2018-11-21T20:28:31.708Z,8.20
2018-11-21T20:30:59.005Z,6.30
2018-11-21T20:33:26.417Z,6.17
2018-11-21T20:35:53.787Z,4.73
2018-11-21T20:38:21.362Z,4.90
2018-11-21T20:40:48.966Z,3.53
2018-11-21T20:43:16.342Z,4.00
2018-11-21T20:45:43.792Z,4.03
2018-11-21T20:48:11.251Z,3.93
2018-11-21T20:50:38.716Z,4.10
2018-11-21T20:53:06.105Z,3.72
2018-11-21T20:55:34.063Z,4.27
2018-11-21T20:58:01.469Z,3.07
2018-11-21T21:00:29.815Z,3.43
2018-11-21T21:02:57.197Z,3.20
2018-11-21T21:05:25.429Z,3.13
2018-11-21T21:07:52.973Z,2.60
2018-11-21T21:10:21.841Z,2.67
2018-11-21T21:12:49.390Z,2.73
2018-11-21T21:15:16.927Z,2.70
2018-11-21T21:17:45.614Z,3.33
2018-11-21T21:20:14.534Z,3.17
2018-11-21T21:22:42.090Z,4.87
2018-11-21T21:25:11.562Z,4.83
2018-11-21T21:27:39.085Z,5.23
2018-11-21T21:30:09.762Z,5.70
2018-11-21T21:32:37.129Z,5.30
2018-11-21T21:35:05.386Z,5.93
2018-11-21T21:37:32.785Z,6.73
2018-11-21T21:40:00.111Z,6.60
2018-11-21T21:42:27.457Z,7.93
2018-11-21T21:44:54.746Z,6.93
2018-11-21T21:47:22.074Z,7.67
2018-11-21T21:49:53.742Z,6.80
2018-11-21T21:52:21.093Z,7.63
2018-11-21T21:54:48.340Z,7.40
2018-11-21T21:57:15.890Z,6.40
2018-11-21T21:59:43.326Z,7.33
2018-11-21T22:02:10.820Z,6.57
2018-11-21T22:04:38.314Z,6.60
2018-11-21T22:07:05.714Z,6.43
2018-11-21T22:09:33.016Z,6.40
2018-11-21T22:12:00.425Z,7.10
2018-11-21T22:14:27.878Z,7.40
2018-11-21T22:16:55.260Z,7.53
2018-11-21T22:19:22.608Z,7.50
2018-11-21T22:21:49.939Z,7.40
2018-11-21T22:24:17.494Z,7.63
2018-11-21T22:26:44.920Z,6.80
2018-11-21T22:29:12.565Z,7.33
2018-11-21T22:31:40.126Z,7.70
2018-11-21T22:34:09.371Z,7.50
2018-11-21T22:36:36.888Z,6.43
2018-11-21T22:39:07.941Z,7.27
2018-11-21T22:41:35.482Z,6.20
2018-11-21T22:44:03.201Z,7.07
2018-11-21T22:46:31.230Z,7.40
2018-11-21T22:48:58.615Z,7.03
2018-11-21T22:51:25.975Z,7.03
2018-11-21T22:53:53.279Z,7.43
2018-11-21T22:56:20.563Z,7.13
2018-11-21T22:58:47.994Z,7.70
2018-11-21T23:01:24.482Z,6.60
2018-11-21T23:03:52.031Z,6.10
2018-11-21T23:06:19.501Z,5.63
2018-11-21T23:08:48.214Z,5.23
2018-11-21T23:11:14.335Z,5.37
2018-11-21T23:13:41.718Z,6.37
2018-11-21T23:16:09.055Z,5.83
2018-11-21T23:18:36.392Z,7.33
2018-11-21T23:21:05.084Z,6.40
2018-11-21T23:23:32.375Z,6.73
2018-11-21T23:25:59.705Z,6.40
2018-11-21T23:28:27.294Z,5.40
2018-11-21T23:30:56.734Z,5.80
2018-11-21T23:33:24.140Z,6.10
2018-11-21T23:35:51.804Z,7.07
2018-11-21T23:38:19.637Z,6.43
2018-11-21T23:40:47.031Z,5.27
2018-11-21T23:43:14.459Z,5.87
2018-11-21T23:45:41.801Z,4.77
2018-11-21T23:48:09.254Z,5.70
2018-11-21T23:50:36.641Z,5.23
2018-11-21T23:53:04.026Z,6.03
2018-11-21T23:55:31.330Z,5.57
2018-11-21T23:57:58.670Z,5.67
